Sw Cap Ferrat 1 — 3FZK6 — position and weather

sailwx.info

Track history (hours):
 
Tides and Currents Weather Stations Pressure Air Temp Water Temp Dewpoint Dewpoint Depression Visibility Wind Speed Wind Dir Waves Ship Positions

Sw Cap Ferrat 1

Last reported at 2017-Jan-13 02:32 UTC. Time now 2017-Jan-23 00:30 UTC.
Position N 37°57' E 024°38'.
Warning: this ship's position is 9 days out of date.

Length 183 m; draft 7.1 m.

Type: Ship (hazmat cat C). MMSI: 374419000.

Date/timePositionNaut miles runAvg speedWind from/ knotsBaromVisibWave heightAir tempDewpointWater temp
2017-Jan-13 02:32N 37°57' E 024°38'1812.2
2017-Jan-13 01:05N 37°40' E 024°31'  
2017-Jan-08 06:09N 36°11' E 014°53'812.9
2017-Jan-08 05:29N 36°18' E 014°47'4 4.0
2017-Jan-08 04:33N 36°18' E 014°52'7 0.8
2017-Jan-07 19:32N 36°12' E 014°54'1010.1
2017-Jan-07 18:33N 36°17' E 014°44'6 5.3
2017-Jan-07 17:29N 36°15' E 014°51'6 0.9
2017-Jan-07 10:32N 36°08' E 014°51'9 9.5
2017-Jan-07 09:33N 36°14' E 014°42'7 6.6
2017-Jan-07 08:28N 36°14' E 014°51'2 0.2
2017-Jan-06 21:32N 36°13' E 014°53'2 0.2
2017-Jan-06 10:03N 36°15' E 014°54'4 8.2
2017-Jan-06 09:33N 36°17' E 014°50'11 0.8
2017-Jan-05 20:28N 36°07' E 014°53'8 8.9
2017-Jan-05 19:33N 36°10' E 014°43'2 2.3
2017-Jan-05 18:33N 36°11' E 014°41'5 5.0
2017-Jan-05 17:33N 36°08' E 014°46'4 4.0
2017-Jan-05 16:32N 36°05' E 014°50'6 3.9
2017-Jan-05 15:06N 36°01' E 014°55'1 0.4
2017-Jan-05 13:33N 36°01' E 014°55'0 0.1
2017-Jan-05 12:30N 36°01' E 014°55'0 0.1
2017-Jan-05 11:27N 36°01' E 014°55'0 0.0
2017-Jan-05 10:33N 36°01' E 014°55'0 0.0
2017-Jan-05 09:30N 36°01' E 014°55'0 0.0
2017-Jan-05 07:33N 36°01' E 014°55'0 0.0
2017-Jan-05 06:33N 36°01' E 014°55'0 0.0
2017-Jan-05 05:33N 36°01' E 014°55'0 0.0
2017-Jan-05 04:33N 36°01' E 014°55'0 0.0
2017-Jan-05 03:33N 36°01' E 014°55'0 0.1
2017-Jan-05 02:27N 36°01' E 014°55'0 0.0
2017-Jan-05 01:24N 36°01' E 014°55'0 0.1
2017-Jan-05 00:12N 36°01' E 014°55'0 0.1
2017-Jan-04 23:33N 36°01' E 014°55'0 0.0
2017-Jan-04 22:21N 36°01' E 014°55'0 0.0
2017-Jan-04 21:30N 36°01' E 014°55'0 0.0
2017-Jan-04 20:24N 36°01' E 014°55'0 0.1
2017-Jan-04 19:33N 36°01' E 014°55'0 0.0
2017-Jan-04 18:33N 36°01' E 014°55'0 0.1
2017-Jan-04 17:33N 36°01' E 014°55'0 0.0
2017-Jan-04 16:27N 36°01' E 014°55'0 0.1
2017-Jan-04 15:33N 36°01' E 014°55'0 0.0
2017-Jan-04 14:33N 36°01' E 014°55'0 0.0
2017-Jan-04 11:12N 36°01' E 014°55'0 0.1
2017-Jan-04 10:21N 36°01' E 014°55'0 0.0
2017-Jan-04 09:30N 36°01' E 014°55'0 0.1
2017-Jan-04 08:24N 36°01' E 014°55'0 0.1
2017-Jan-04 07:24N 36°01' E 014°55'0 0.1
2017-Jan-04 06:27N 36°01' E 014°55'0 0.0
2017-Jan-04 05:21N 36°01' E 014°55'0 0.0
2017-Jan-04 04:27N 36°01' E 014°55'0 0.0
2017-Jan-04 03:21N 36°01' E 014°55'0 0.0
2017-Jan-04 02:33N 36°01' E 014°55'0 0.0
2017-Jan-04 00:33N 36°01' E 014°55'0 0.0
2017-Jan-03 23:30N 36°01' E 014°55'0 0.0
2017-Jan-03 22:33N 36°01' E 014°55'0 0.0
2017-Jan-03 20:30N 36°01' E 014°55'0 0.0
2017-Jan-03 18:27N 36°01' E 014°55'0 0.0
2017-Jan-03 17:30N 36°01' E 014°55'0 0.0
2017-Jan-03 16:15N 36°01' E 014°55'0 0.1
2017-Jan-03 15:30N 36°01' E 014°55'0 0.0
2017-Jan-03 14:30N 36°01' E 014°55'0 0.0
2017-Jan-03 13:09N 36°01' E 014°55'0 0.0
2017-Jan-03 11:33N 36°01' E 014°55'0 0.0
2017-Jan-03 09:24N 36°01' E 014°55'0 0.0
2017-Jan-03 08:30N 36°01' E 014°55'0 0.0
2017-Jan-03 07:27N 36°01' E 014°55'0 0.1
2017-Jan-03 06:27N 36°01' E 014°55'0 0.0
2017-Jan-03 05:24N 36°01' E 014°55'0 0.0
2017-Jan-03 04:33N 36°01' E 014°55'0 0.0
2017-Jan-03 03:27N 36°01' E 014°55'0 0.0
2017-Jan-03 02:33N 36°01' E 014°55'  
Track history (hours):
 
Tides and Currents Weather Stations Pressure Air Temp Water Temp Dewpoint Dewpoint Depression Visibility Wind Speed Wind Dir Waves Ship Positions

Sw Cap Ferrat 1

Last reported at 2017-Jan-13 02:32 UTC. Time now 2017-Jan-23 00:30 UTC.
Position N 37°57' E 024°38'.
Warning: this ship's position is 9 days out of date.

Length 183 m; draft 7.1 m.

Type: Ship (hazmat cat C). MMSI: 374419000.

Date/timePositionNaut miles runAvg speedWind from/ knotsBaromVisibWave heightAir tempDewpointWater temp
2017-Jan-13 02:32N 37°57' E 024°38'1812.2
2017-Jan-13 01:05N 37°40' E 024°31'  
2017-Jan-08 06:09N 36°11' E 014°53'812.9
2017-Jan-08 05:29N 36°18' E 014°47'4 4.0
2017-Jan-08 04:33N 36°18' E 014°52'7 0.8
2017-Jan-07 19:32N 36°12' E 014°54'1010.1
2017-Jan-07 18:33N 36°17' E 014°44'6 5.3
2017-Jan-07 17:29N 36°15' E 014°51'6 0.9
2017-Jan-07 10:32N 36°08' E 014°51'9 9.5
2017-Jan-07 09:33N 36°14' E 014°42'7 6.6
2017-Jan-07 08:28N 36°14' E 014°51'2 0.2
2017-Jan-06 21:32N 36°13' E 014°53'2 0.2
2017-Jan-06 10:03N 36°15' E 014°54'4 8.2
2017-Jan-06 09:33N 36°17' E 014°50'11 0.8
2017-Jan-05 20:28N 36°07' E 014°53'8 8.9
2017-Jan-05 19:33N 36°10' E 014°43'2 2.3
2017-Jan-05 18:33N 36°11' E 014°41'5 5.0
2017-Jan-05 17:33N 36°08' E 014°46'4 4.0
2017-Jan-05 16:32N 36°05' E 014°50'6 3.9
2017-Jan-05 15:06N 36°01' E 014°55'1 0.4
2017-Jan-05 13:33N 36°01' E 014°55'0 0.1
2017-Jan-05 12:30N 36°01' E 014°55'0 0.1
2017-Jan-05 11:27N 36°01' E 014°55'0 0.0
2017-Jan-05 10:33N 36°01' E 014°55'0 0.0
2017-Jan-05 09:30N 36°01' E 014°55'0 0.0
2017-Jan-05 07:33N 36°01' E 014°55'0 0.0
2017-Jan-05 06:33N 36°01' E 014°55'0 0.0
2017-Jan-05 05:33N 36°01' E 014°55'0 0.0
2017-Jan-05 04:33N 36°01' E 014°55'0 0.0
2017-Jan-05 03:33N 36°01' E 014°55'0 0.1
2017-Jan-05 02:27N 36°01' E 014°55'0 0.0
2017-Jan-05 01:24N 36°01' E 014°55'0 0.1
2017-Jan-05 00:12N 36°01' E 014°55'0 0.1
2017-Jan-04 23:33N 36°01' E 014°55'0 0.0
2017-Jan-04 22:21N 36°01' E 014°55'0 0.0
2017-Jan-04 21:30N 36°01' E 014°55'0 0.0
2017-Jan-04 20:24N 36°01' E 014°55'0 0.1
2017-Jan-04 19:33N 36°01' E 014°55'0 0.0
2017-Jan-04 18:33N 36°01' E 014°55'0 0.1
2017-Jan-04 17:33N 36°01' E 014°55'0 0.0
2017-Jan-04 16:27N 36°01' E 014°55'0 0.1
2017-Jan-04 15:33N 36°01' E 014°55'0 0.0
2017-Jan-04 14:33N 36°01' E 014°55'0 0.0
2017-Jan-04 11:12N 36°01' E 014°55'0 0.1
2017-Jan-04 10:21N 36°01' E 014°55'0 0.0
2017-Jan-04 09:30N 36°01' E 014°55'0 0.1
2017-Jan-04 08:24N 36°01' E 014°55'0 0.1
2017-Jan-04 07:24N 36°01' E 014°55'0 0.1
2017-Jan-04 06:27N 36°01' E 014°55'0 0.0
2017-Jan-04 05:21N 36°01' E 014°55'0 0.0
2017-Jan-04 04:27N 36°01' E 014°55'0 0.0
2017-Jan-04 03:21N 36°01' E 014°55'0 0.0
2017-Jan-04 02:33N 36°01' E 014°55'0 0.0
2017-Jan-04 00:33N 36°01' E 014°55'0 0.0
2017-Jan-03 23:30N 36°01' E 014°55'0 0.0
2017-Jan-03 22:33N 36°01' E 014°55'0 0.0
2017-Jan-03 20:30N 36°01' E 014°55'0 0.0
2017-Jan-03 18:27N 36°01' E 014°55'0 0.0
2017-Jan-03 17:30N 36°01' E 014°55'0 0.0
2017-Jan-03 16:15N 36°01' E 014°55'0 0.1
2017-Jan-03 15:30N 36°01' E 014°55'0 0.0
2017-Jan-03 14:30N 36°01' E 014°55'0 0.0
2017-Jan-03 13:09N 36°01' E 014°55'0 0.0
2017-Jan-03 11:33N 36°01' E 014°55'0 0.0
2017-Jan-03 09:24N 36°01' E 014°55'0 0.0
2017-Jan-03 08:30N 36°01' E 014°55'0 0.0
2017-Jan-03 07:27N 36°01' E 014°55'0 0.1
2017-Jan-03 06:27N 36°01' E 014°55'0 0.0
2017-Jan-03 05:24N 36°01' E 014°55'0 0.0
2017-Jan-03 04:33N 36°01' E 014°55'0 0.0
2017-Jan-03 03:27N 36°01' E 014°55'0 0.0
2017-Jan-03 02:33N 36°01' E 014°55'  

Dump ship's entire track history